Time;durP1;ratioP1;P1;durP2;ratioP2;P2;SDS_P1;SDS_P2;PMS_P1;PMS_P2;Temp;Humidity;BMP_temperature;BMP_pressure;BME280_temperature;BME280_humidity;BME280_pressure;Samples;Min_cycle;Max_cycle;Signal;HPM_P1;HPM_P2
2021/05/24 00:00:31;;;;;;;5.97;3.07;;;11.10;99.90;;;;;;5069115;28;20184;-67
2021/05/24 00:02:57;;;;;;;6.60;3.87;;;11.10;99.90;;;;;;5070674;28;20185;-68
2021/05/24 00:05:34;;;;;;;4.37;3.20;;;11.10;99.90;;;;;;5070741;28;20168;-67
2021/05/24 00:08:01;;;;;;;3.50;3.20;;;11.10;99.90;;;;;;5070768;28;20558;-67
2021/05/24 00:10:29;;;;;;;3.20;3.00;;;11.00;99.90;;;;;;5069628;28;20669;-67
2021/05/24 00:12:57;;;;;;;5.60;3.40;;;11.00;99.90;;;;;;5071235;28;20570;-67
2021/05/24 00:15:26;;;;;;;4.80;3.10;;;11.00;99.90;;;;;;5072823;28;20227;-66
2021/05/24 00:17:52;;;;;;;3.83;2.83;;;10.90;99.90;;;;;;5071440;28;20212;-67
2021/05/24 00:20:21;;;;;;;3.63;3.07;;;10.90;99.90;;;;;;5071074;28;20192;-66
2021/05/24 00:22:46;;;;;;;3.57;3.27;;;10.80;99.90;;;;;;5071209;28;20559;-66
2021/05/24 00:25:12;;;;;;;4.47;4.07;;;10.70;99.90;;;;;;5069968;28;20181;-66
2021/05/24 00:27:38;;;;;;;5.87;3.73;;;10.70;99.90;;;;;;5070627;28;20200;-66
2021/05/24 00:30:05;;;;;;;4.60;4.00;;;10.60;99.90;;;;;;5070009;28;20551;-66
2021/05/24 00:32:31;;;;;;;4.20;3.80;;;10.60;99.90;;;;;;5070248;28;20201;-66
2021/05/24 00:34:56;;;;;;;4.30;3.90;;;10.50;99.90;;;;;;5070959;28;20527;-67
2021/05/24 00:37:22;;;;;;;4.90;4.37;;;10.50;99.90;;;;;;5070965;28;20207;-67
2021/05/24 00:39:48;;;;;;;5.83;4.10;;;10.50;99.90;;;;;;5072355;28;20169;-65
2021/05/24 00:42:14;;;;;;;4.50;4.20;;;10.50;99.90;;;;;;5074044;28;20176;-65
2021/05/24 00:44:40;;;;;;;5.30;4.30;;;10.50;99.90;;;;;;5073956;28;20634;-65
2021/05/24 00:47:05;;;;;;;4.13;3.73;;;10.50;99.90;;;;;;5073445;28;20250;-67
2021/05/24 00:49:31;;;;;;;5.50;4.23;;;10.40;99.90;;;;;;5074157;28;20632;-67
2021/05/24 00:51:58;;;;;;;4.00;3.53;;;10.40;99.90;;;;;;5073459;28;20174;-67
2021/05/24 00:54:24;;;;;;;5.23;4.07;;;10.40;99.90;;;;;;5073876;28;20616;-67
2021/05/24 00:56:53;;;;;;;5.43;4.23;;;10.30;99.90;;;;;;5074088;28;20633;-67
2021/05/24 00:59:19;;;;;;;5.23;3.70;;;10.20;99.90;;;;;;5060024;22;20230;-63
2021/05/24 01:01:44;;;;;;;3.83;3.50;;;10.20;99.90;;;;;;5044870;28;20212;-65
2021/05/24 01:04:11;;;;;;;4.07;3.60;;;10.20;99.90;;;;;;5053881;28;20554;-63
2021/05/24 01:06:37;;;;;;;4.00;3.60;;;10.10;99.90;;;;;;5053603;28;20200;-64
2021/05/24 01:09:04;;;;;;;4.47;3.83;;;10.10;99.90;;;;;;5051507;28;20217;-63
2021/05/24 01:11:30;;;;;;;3.50;3.20;;;10.10;99.90;;;;;;5053338;28;20249;-63
2021/05/24 01:13:55;;;;;;;3.60;3.20;;;10.10;99.90;;;;;;5053088;28;20281;-64
2021/05/24 01:16:21;;;;;;;4.60;3.50;;;10.10;99.90;;;;;;5053774;28;20184;-63
2021/05/24 01:18:46;;;;;;;4.63;4.13;;;10.10;99.90;;;;;;5052035;28;20739;-64
2021/05/24 01:21:13;;;;;;;4.73;4.00;;;10.10;99.90;;;;;;5053775;28;20169;-64
2021/05/24 01:23:44;;;;;;;4.23;3.83;;;10.10;99.90;;;;;;5053551;28;20181;-64
2021/05/24 01:26:10;;;;;;;5.40;4.40;;;10.10;99.90;;;;;;5052724;28;20185;-65
2021/05/24 01:28:35;;;;;;;4.87;3.70;;;10.10;99.90;;;;;;5053197;28;20189;-64
2021/05/24 01:31:02;;;;;;;4.67;4.27;;;10.00;99.90;;;;;;5053151;28;20170;-64
2021/05/24 01:33:28;;;;;;;4.27;3.70;;;10.10;99.90;;;;;;5053035;28;20418;-63
2021/05/24 01:35:54;;;;;;;5.83;4.00;;;10.10;99.90;;;;;;5052513;28;20733;-64
2021/05/24 01:51:48;;;;;;;3.47;3.17;;;10.00;99.90;;;;;;5029527;28;20169;-62
2021/05/24 01:54:14;;;;;;;4.97;4.10;;;9.90;99.90;;;;;;5033151;28;20202;-64
2021/05/24 01:56:41;;;;;;;4.13;3.80;;;10.00;99.90;;;;;;5045213;28;20185;-64
2021/05/24 01:59:06;;;;;;;4.50;4.10;;;9.90;99.90;;;;;;5034530;28;20225;-64
2021/05/24 02:01:32;;;;;;;4.90;4.03;;;9.90;99.90;;;;;;5028153;28;20566;-64
2021/05/24 02:03:57;;;;;;;4.53;4.13;;;9.90;99.90;;;;;;5032958;28;20193;-64
2021/05/24 02:06:23;;;;;;;4.67;4.30;;;9.90;99.90;;;;;;5031723;28;20217;-64
2021/05/24 02:08:48;;;;;;;5.00;4.50;;;9.80;99.90;;;;;;5032474;28;20186;-64
2021/05/24 02:11:14;;;;;;;6.43;4.40;;;9.80;99.90;;;;;;5032345;28;20663;-64
2021/05/24 02:13:46;;;;;;;5.67;4.57;;;9.80;99.90;;;;;;5031712;28;20205;-64
2021/05/24 02:16:12;;;;;;;6.33;4.73;;;9.80;99.90;;;;;;5032505;28;20186;-64
2021/05/24 02:18:37;;;;;;;6.40;4.90;;;9.70;99.90;;;;;;5032656;28;20198;-65
2021/05/24 02:21:06;;;;;;;5.20;4.70;;;9.70;99.90;;;;;;5031883;28;20182;-64
2021/05/24 02:23:32;;;;;;;5.27;4.47;;;9.60;99.90;;;;;;5032659;28;20190;-64
2021/05/24 02:25:57;;;;;;;5.53;5.00;;;9.60;99.90;;;;;;5040192;28;20182;-64
2021/05/24 02:28:23;;;;;;;6.23;4.90;;;9.60;99.90;;;;;;5052069;28;20700;-63
2021/05/24 02:30:48;;;;;;;5.03;4.53;;;9.60;99.90;;;;;;5052006;28;20182;-63
2021/05/24 02:33:14;;;;;;;5.90;4.63;;;9.60;99.90;;;;;;5051043;28;20208;-64
2021/05/24 02:35:40;;;;;;;5.10;4.60;;;9.60;99.90;;;;;;5051686;28;20658;-63
2021/05/24 02:38:05;;;;;;;5.67;5.10;;;9.60;99.90;;;;;;5051952;28;20196;-64
2021/05/24 02:40:32;;;;;;;5.27;4.63;;;9.70;99.90;;;;;;5051500;28;20174;-65
2021/05/24 02:42:57;;;;;;;6.10;4.50;;;9.70;99.90;;;;;;5036668;28;20170;-66
2021/05/24 02:45:23;;;;;;;5.00;4.60;;;9.70;99.90;;;;;;5031985;28;20227;-65
2021/05/24 02:47:50;;;;;;;4.70;4.30;;;9.80;99.90;;;;;;5031834;28;20244;-65
2021/05/24 02:50:19;;;;;;;5.10;4.60;;;9.80;99.90;;;;;;5031331;28;20197;-64
2021/05/24 02:52:44;;;;;;;5.93;4.80;;;9.80;99.90;;;;;;5031772;28;20198;-63
2021/05/24 02:55:11;;;;;;;4.93;4.33;;;9.90;99.90;;;;;;5030992;28;20631;-64
2021/05/24 02:57:36;;;;;;;5.20;4.70;;;9.90;99.90;;;;;;5031106;28;20206;-64
2021/05/24 03:00:05;;;;;;;5.23;4.43;;;9.80;99.90;;;;;;5031556;28;20601;-64
2021/05/24 03:02:31;;;;;;;6.07;4.23;;;9.90;99.90;;;;;;5030075;28;20213;-65
2021/05/24 03:04:56;;;;;;;5.13;4.67;;;9.90;99.90;;;;;;5030930;28;20206;-64
2021/05/24 03:07:22;;;;;;;5.03;4.53;;;9.90;99.90;;;;;;5031824;28;20166;-65
2021/05/24 03:09:48;;;;;;;5.60;4.63;;;9.90;99.90;;;;;;5031636;28;20639;-65
2021/05/24 03:12:14;;;;;;;5.90;4.60;;;10.00;99.90;;;;;;5031271;28;20174;-65
2021/05/24 03:14:41;;;;;;;6.17;4.90;;;10.00;99.90;;;;;;5031033;28;20170;-65
2021/05/24 03:17:06;;;;;;;4.97;4.57;;;10.00;99.90;;;;;;5031122;28;20182;-65
2021/05/24 03:19:32;;;;;;;5.40;4.90;;;10.10;99.90;;;;;;5031026;28;20226;-64
2021/05/24 03:21:57;;;;;;;5.60;4.43;;;10.10;99.90;;;;;;5029164;28;20173;-66
2021/05/24 03:24:23;;;;;;;5.60;4.30;;;10.10;99.90;;;;;;5031010;28;20185;-65
2021/05/24 03:26:49;;;;;;;6.23;4.50;;;10.20;99.90;;;;;;5030679;28;20677;-65
2021/05/24 03:29:14;;;;;;;5.33;4.90;;;10.10;99.90;;;;;;5031092;28;20561;-64
2021/05/24 03:31:40;;;;;;;5.47;4.43;;;10.10;99.90;;;;;;5029771;28;20182;-64
2021/05/24 03:34:05;;;;;;;8.10;5.00;;;10.10;99.90;;;;;;5029929;28;20205;-64
2021/05/24 03:36:31;;;;;;;5.07;4.50;;;10.10;99.90;;;;;;5030841;28;20637;-64
2021/05/24 03:38:56;;;;;;;5.90;5.40;;;10.20;99.90;;;;;;5029966;28;20187;-64
2021/05/24 03:41:22;;;;;;;7.90;5.13;;;10.20;99.90;;;;;;5030065;28;20639;-64
2021/05/24 03:43:48;;;;;;;5.53;4.80;;;10.30;99.90;;;;;;5029795;28;20224;-65
2021/05/24 03:46:14;;;;;;;5.97;5.07;;;10.30;99.90;;;;;;5030617;28;20170;-65
2021/05/24 03:48:40;;;;;;;6.73;5.53;;;10.40;99.90;;;;;;5030576;28;20197;-65
2021/05/24 03:51:06;;;;;;;5.77;5.27;;;10.60;99.90;;;;;;5029282;28;20849;-65
2021/05/24 03:53:32;;;;;;;6.50;5.60;;;10.90;99.90;;;;;;5030089;28;20224;-64
2021/05/24 03:55:57;;;;;;;5.67;5.17;;;11.10;99.90;;;;;;5019273;28;20213;-64
2021/05/24 03:58:23;;;;;;;5.83;5.33;;;11.30;99.90;;;;;;5028875;28;20215;-64
2021/05/24 04:00:49;;;;;;;5.53;4.80;;;11.70;99.90;;;;;;5029333;28;20277;-64
2021/05/24 04:03:14;;;;;;;5.00;4.50;;;12.10;99.90;;;;;;5030652;28;20599;-63
2021/05/24 04:05:41;;;;;;;7.40;4.53;;;12.50;99.90;;;;;;5030576;28;20197;-65
2021/05/24 04:08:08;;;;;;;6.07;4.87;;;12.40;99.90;;;;;;5029070;28;20224;-65
2021/05/24 04:10:37;;;;;;;5.37;4.87;;;12.10;99.90;;;;;;5030134;28;20186;-65
2021/05/24 04:13:03;;;;;;;5.27;4.53;;;11.90;99.90;;;;;;5029320;28;20190;-65
2021/05/24 04:15:30;;;;;;;5.03;4.37;;;11.80;99.90;;;;;;5015415;28;20700;-65
2021/05/24 04:17:58;;;;;;;6.70;4.43;;;11.70;99.90;;;;;;5034607;28;20189;-65
2021/05/24 04:20:24;;;;;;;5.10;4.60;;;11.60;99.90;;;;;;5034728;28;20174;-65
2021/05/24 04:22:50;;;;;;;7.93;5.20;;;11.60;99.90;;;;;;5052011;28;20260;-65
2021/05/24 04:25:16;;;;;;;4.57;4.17;;;11.70;99.90;;;;;;5054756;28;20180;-65
2021/05/24 04:27:41;;;;;;;6.50;4.10;;;11.60;99.90;;;;;;5053976;28;20259;-64
2021/05/24 04:30:09;;;;;;;8.80;4.53;;;11.70;99.90;;;;;;5053366;28;20182;-64
2021/05/24 04:32:34;;;;;;;4.20;3.90;;;11.80;99.90;;;;;;5053660;28;20729;-65
2021/05/24 04:35:00;;;;;;;4.33;3.67;;;11.80;99.90;;;;;;5054209;28;20170;-64
2021/05/24 04:37:25;;;;;;;5.23;4.23;;;11.80;99.90;;;;;;5047312;28;20184;-64
2021/05/24 04:39:51;;;;;;;6.57;3.97;;;11.70;99.90;;;;;;5033903;28;20175;-64
2021/05/24 04:42:16;;;;;;;5.03;3.60;;;11.70;99.90;;;;;;5033553;28;20253;-64
2021/05/24 04:44:43;;;;;;;4.07;3.67;;;11.70;99.90;;;;;;5034050;28;20171;-64
2021/05/24 04:47:08;;;;;;;5.20;4.07;;;11.70;99.90;;;;;;5033107;28;20220;-64
2021/05/24 04:49:34;;;;;;;4.10;3.70;;;11.70;99.90;;;;;;5034007;28;20210;-65
2021/05/24 04:52:00;;;;;;;6.07;3.87;;;11.80;99.90;;;;;;5033663;28;20177;-64
2021/05/24 04:54:26;;;;;;;5.50;4.10;;;11.90;99.90;;;;;;5032112;28;20210;-65
2021/05/24 04:56:52;;;;;;;4.23;3.20;;;12.10;99.90;;;;;;5033566;28;20178;-65
2021/05/24 04:59:17;;;;;;;6.87;3.70;;;12.10;99.90;;;;;;5033405;28;20690;-65
2021/05/24 05:01:43;;;;;;;8.40;4.47;;;12.40;99.90;;;;;;5033357;28;20192;-64
2021/05/24 05:04:08;;;;;;;3.90;3.50;;;12.40;99.90;;;;;;5032644;28;20202;-65
2021/05/24 05:06:34;;;;;;;4.17;3.60;;;12.40;99.90;;;;;;5033635;28;20198;-64
2021/05/24 05:08:59;;;;;;;3.50;3.20;;;12.50;99.90;;;;;;5033370;28;20190;-64
2021/05/24 05:11:25;;;;;;;4.10;3.40;;;12.60;99.90;;;;;;5032223;28;20178;-66
2021/05/24 05:13:50;;;;;;;7.20;3.50;;;12.60;99.90;;;;;;5015601;28;20292;-65
2021/05/24 05:16:16;;;;;;;4.10;3.17;;;12.60;99.90;;;;;;5033285;28;20179;-64
2021/05/24 05:18:41;;;;;;;3.70;2.80;;;12.70;99.90;;;;;;5032467;28;20214;-65
2021/05/24 05:21:07;;;;;;;3.43;3.10;;;12.70;99.90;;;;;;5032923;28;20169;-66
2021/05/24 05:23:32;;;;;;;4.87;3.33;;;12.90;99.90;;;;;;5033231;28;20175;-65
2021/05/24 05:25:58;;;;;;;6.10;3.33;;;13.00;99.90;;;;;;5031899;28;20558;-64
2021/05/24 05:28:24;;;;;;;4.73;3.70;;;12.90;99.90;;;;;;5033029;28;20241;-64
2021/05/24 05:30:50;;;;;;;4.23;3.83;;;12.90;99.90;;;;;;5033023;28;20183;-65
2021/05/24 05:33:16;;;;;;;3.80;3.43;;;12.90;99.90;;;;;;5032103;28;20213;-64
2021/05/24 05:35:47;;;;;;;4.97;3.40;;;12.90;99.90;;;;;;5033146;28;20178;-64
2021/05/24 05:38:15;;;;;;;4.93;3.87;;;12.80;99.90;;;;;;5032608;28;20233;-64
2021/05/24 05:40:47;;;;;;;4.33;3.43;;;12.70;99.90;;;;;;5032681;28;20795;-64
2021/05/24 05:43:13;;;;;;;4.53;3.83;;;12.60;99.90;;;;;;5033515;28;20235;-64
2021/05/24 05:45:38;;;;;;;4.07;3.67;;;12.60;99.90;;;;;;5032619;28;20178;-64
2021/05/24 05:48:04;;;;;;;3.70;3.40;;;12.70;99.90;;;;;;5032672;28;20269;-65
2021/05/24 05:50:30;;;;;;;3.80;3.43;;;12.70;99.90;;;;;;5031837;28;20600;-64
2021/05/24 05:52:57;;;;;;;4.80;3.57;;;12.80;99.90;;;;;;5032640;28;20208;-64
2021/05/24 05:55:22;;;;;;;5.37;3.87;;;12.90;99.90;;;;;;5032641;28;20170;-63
2021/05/24 05:57:48;;;;;;;3.93;3.63;;;12.90;99.90;;;;;;5031803;28;20210;-64
2021/05/24 06:00:14;;;;;;;4.37;3.73;;;12.90;99.90;;;;;;5032814;28;20626;-64
2021/05/24 06:02:39;;;;;;;5.37;3.83;;;12.80;99.90;;;;;;5054829;28;20182;-65
2021/05/24 06:05:05;;;;;;;4.20;3.80;;;12.70;99.90;;;;;;5061984;28;20247;-69
2021/05/24 06:07:31;;;;;;;5.97;3.80;;;12.80;99.90;;;;;;5073783;28;20228;-69
2021/05/24 06:09:56;;;;;;;5.20;3.90;;;12.80;99.90;;;;;;5073682;28;20174;-69
2021/05/24 06:12:22;;;;;;;4.60;3.77;;;13.10;99.90;;;;;;5074938;28;20166;-69
2021/05/24 06:14:47;;;;;;;4.10;3.70;;;13.20;99.90;;;;;;5070701;28;20195;-70
2021/05/24 06:17:13;;;;;;;5.70;3.53;;;13.40;99.90;;;;;;5066646;28;20645;-69
2021/05/24 06:19:38;;;;;;;4.67;3.47;;;13.60;99.90;;;;;;5063251;28;20177;-71
2021/05/24 06:22:04;;;;;;;3.47;3.17;;;13.80;99.90;;;;;;5053630;28;20170;-70
2021/05/24 06:24:29;;;;;;;3.63;2.90;;;13.90;99.90;;;;;;5053066;28;20181;-70
2021/05/24 06:26:55;;;;;;;5.00;3.27;;;13.60;99.90;;;;;;5054414;28;20192;-69
2021/05/24 06:29:24;;;;;;;3.20;2.87;;;13.40;99.90;;;;;;5052570;28;20326;-70
2021/05/24 06:31:55;;;;;;;3.93;3.30;;;13.30;99.90;;;;;;5051505;28;20570;-70
2021/05/24 06:34:20;;;;;;;3.50;3.03;;;13.40;99.90;;;;;;5052319;28;20198;-69
2021/05/24 06:36:46;;;;;;;2.80;2.60;;;13.60;99.90;;;;;;5051538;28;20174;-70
2021/05/24 06:39:12;;;;;;;3.60;2.93;;;13.80;99.90;;;;;;5043193;28;20190;-72
2021/05/24 06:41:38;;;;;;;3.30;3.00;;;14.10;99.90;;;;;;5032975;28;20226;-70
2021/05/24 06:44:04;;;;;;;3.57;2.90;;;14.50;99.90;;;;;;5032606;28;20202;-71
2021/05/24 06:46:29;;;;;;;3.40;3.10;;;14.70;99.90;;;;;;5031632;28;20174;-70
2021/05/24 06:48:55;;;;;;;3.53;2.97;;;14.50;99.90;;;;;;5031892;28;20264;-70
2021/05/24 06:51:21;;;;;;;3.57;3.10;;;14.40;99.90;;;;;;5014381;28;20647;-70
2021/05/24 06:53:46;;;;;;;4.10;3.33;;;14.30;99.90;;;;;;5032161;28;20205;-70
2021/05/24 06:56:12;;;;;;;4.27;2.80;;;14.50;99.90;;;;;;5031545;28;20183;-71
2021/05/24 06:58:38;;;;;;;3.07;2.80;;;14.50;99.90;;;;;;5059204;22;20273;-67
2021/05/24 07:01:04;;;;;;;4.90;3.13;;;14.50;99.90;;;;;;5090734;28;20164;-65
2021/05/24 07:03:30;;;;;;;3.73;3.17;;;14.50;99.90;;;;;;5091658;28;20176;-66
2021/05/24 07:05:56;;;;;;;5.60;2.90;;;14.70;99.90;;;;;;5091644;28;20603;-67
2021/05/24 07:08:22;;;;;;;4.17;2.63;;;14.60;99.90;;;;;;5107048;28;20254;-67
2021/05/24 07:10:48;;;;;;;5.10;2.83;;;14.60;99.90;;;;;;5111965;28;20620;-66
2021/05/24 07:13:13;;;;;;;4.00;2.40;;;15.00;99.90;;;;;;5111791;28;20188;-67
2021/05/24 07:15:39;;;;;;;4.00;2.90;;;15.30;99.90;;;;;;5110576;28;20171;-67
2021/05/24 07:18:05;;;;;;;3.37;2.70;;;15.30;99.90;;;;;;5111165;28;20190;-66
2021/05/24 07:20:31;;;;;;;3.23;2.50;;;15.30;99.90;;;;;;5111241;28;20191;-65
2021/05/24 07:22:56;;;;;;;2.23;1.90;;;15.20;99.90;;;;;;5110663;28;20940;-66
2021/05/24 07:25:22;;;;;;;2.80;2.00;;;15.10;99.90;;;;;;5111527;28;20172;-66
2021/05/24 07:27:47;;;;;;;3.27;2.27;;;15.20;99.90;;;;;;5110692;28;20173;-67
2021/05/24 07:30:13;;;;;;;3.83;2.30;;;15.40;99.90;;;;;;5111416;28;20224;-65
2021/05/24 07:32:39;;;;;;;2.50;2.30;;;15.50;99.90;;;;;;5111141;28;20700;-66
2021/05/24 07:35:05;;;;;;;3.07;2.10;;;15.80;99.90;;;;;;5110628;28;20176;-66
2021/05/24 07:37:31;;;;;;;3.63;2.07;;;15.90;99.90;;;;;;5111534;28;20163;-66
2021/05/24 07:39:56;;;;;;;2.47;2.10;;;15.90;99.90;;;;;;5110608;28;20582;-65
2021/05/24 07:42:22;;;;;;;2.43;1.83;;;16.10;99.90;;;;;;5111417;28;20174;-67
2021/05/24 07:44:47;;;;;;;1.70;1.60;;;16.20;99.90;;;;;;5111422;28;20175;-67
2021/05/24 07:47:13;;;;;;;1.87;1.77;;;16.20;99.90;;;;;;5111267;28;20169;-66
2021/05/24 07:49:38;;;;;;;3.00;2.00;;;16.30;99.90;;;;;;5110120;28;20262;-66
2021/05/24 07:52:04;;;;;;;2.50;2.30;;;16.20;99.90;;;;;;5110970;28;20167;-66
2021/05/24 07:54:30;;;;;;;3.37;2.10;;;16.40;99.90;;;;;;5111332;28;20203;-67
2021/05/24 07:56:55;;;;;;;2.20;2.00;;;16.30;99.90;;;;;;5111199;28;20206;-65
2021/05/24 07:59:21;;;;;;;3.73;1.83;;;16.40;99.90;;;;;;5110110;28;20290;-66
2021/05/24 08:01:47;;;;;;;2.23;1.93;;;16.30;99.90;;;;;;5110982;28;20160;-66
2021/05/24 08:04:12;;;;;;;2.30;2.10;;;16.50;99.90;;;;;;5111048;28;20183;-65
2021/05/24 08:06:38;;;;;;;2.10;1.90;;;16.70;99.90;;;;;;5111410;28;20174;-68
2021/05/24 08:09:05;;;;;;;2.70;2.00;;;16.80;99.90;;;;;;5110968;28;20191;-67
2021/05/24 08:11:31;;;;;;;3.07;1.80;;;17.00;99.90;;;;;;5110064;28;20163;-67
2021/05/24 08:13:57;;;;;;;1.93;1.83;;;17.10;99.90;;;;;;5111339;28;20211;-69
2021/05/24 08:16:23;;;;;;;2.63;1.90;;;17.20;99.90;;;;;;5111006;28;20156;-69
2021/05/24 08:18:49;;;;;;;2.10;1.90;;;17.00;99.90;;;;;;5111120;28;20195;-70
2021/05/24 08:21:16;;;;;;;2.97;1.93;;;17.30;99.90;;;;;;5094087;28;20168;-69
2021/05/24 08:23:45;;;;;;;2.00;1.90;;;17.30;99.90;;;;;;5091075;28;20169;-66
2021/05/24 08:26:11;;;;;;;2.07;1.70;;;17.40;99.90;;;;;;5090004;28;20183;-66
2021/05/24 08:28:37;;;;;;;2.43;1.60;;;17.60;99.90;;;;;;5089576;28;20196;-68
2021/05/24 08:31:03;;;;;;;1.80;1.70;;;17.80;99.90;;;;;;5088474;28;20183;-66
2021/05/24 08:33:30;;;;;;;2.10;1.90;;;17.80;99.90;;;;;;5088182;28;20214;-66
2021/05/24 08:35:56;;;;;;;1.70;1.60;;;17.80;99.90;;;;;;5088577;28;20548;-67
2021/05/24 08:38:22;;;;;;;1.73;1.30;;;17.90;99.90;;;;;;5070424;28;20213;-65
2021/05/24 08:40:49;;;;;;;6.17;1.63;;;18.10;99.90;;;;;;5088263;28;20195;-67
2021/05/24 08:43:15;;;;;;;1.40;1.30;;;17.90;99.90;;;;;;5090194;28;20181;-67
2021/05/24 08:45:42;;;;;;;1.90;1.53;;;18.20;99.90;;;;;;5090721;28;20637;-66
2021/05/24 08:48:09;;;;;;;2.17;1.73;;;18.20;99.90;;;;;;5090671;28;20283;-66
2021/05/24 08:50:35;;;;;;;2.30;1.70;;;18.20;99.90;;;;;;5090252;28;20663;-66
2021/05/24 08:53:04;;;;;;;2.77;1.97;;;18.40;99.90;;;;;;5090331;28;20196;-66
2021/05/24 08:55:29;;;;;;;2.50;1.47;;;18.50;99.90;;;;;;5090499;28;20173;-67
2021/05/24 08:57:55;;;;;;;1.77;1.20;;;18.70;99.90;;;;;;5090329;28;20192;-67
2021/05/24 09:00:21;;;;;;;2.07;1.20;;;18.70;99.90;;;;;;5091447;28;20194;-65
2021/05/24 09:02:49;;;;;;;1.97;1.40;;;18.80;99.90;;;;;;5093978;28;20179;-67
2021/05/24 09:05:15;;;;;;;5.33;1.20;;;18.80;99.90;;;;;;5093968;28;20172;-67
2021/05/24 09:07:51;;;;;;;2.40;1.30;;;19.00;99.90;;;;;;5075844;28;20173;-66
2021/05/24 09:10:17;;;;;;;1.10;0.97;;;19.20;99.90;;;;;;5093740;28;20172;-66
2021/05/24 09:12:43;;;;;;;1.70;1.40;;;19.00;99.90;;;;;;5094235;28;20468;-65
2021/05/24 09:15:13;;;;;;;2.13;1.00;;;19.20;99.90;;;;;;5094173;28;20255;-66
2021/05/24 09:17:53;;;;;;;3.10;1.10;;;19.20;99.90;;;;;;5093948;28;20189;-67
2021/05/24 09:20:26;;;;;;;1.90;1.40;;;19.10;99.90;;;;;;5093978;28;20181;-67
2021/05/24 09:23:10;;;;;;;2.60;1.30;;;19.10;99.90;;;;;;5093631;28;20173;-66
2021/05/24 09:26:04;;;;;;;2.67;1.10;;;19.00;99.90;;;;;;5093756;28;20168;-66
2021/05/24 09:28:40;;;;;;;3.33;1.13;;;19.00;99.90;;;;;;5093926;28;20192;-66
2021/05/24 09:31:12;;;;;;;1.50;1.00;;;18.80;99.90;;;;;;5093196;28;20689;-66
2021/05/24 09:33:46;;;;;;;2.63;1.07;;;18.80;99.90;;;;;;5093281;28;20200;-66
2021/05/24 09:36:13;;;;;;;2.13;1.30;;;19.20;99.90;;;;;;5093353;28;20252;-67
2021/05/24 09:38:40;;;;;;;1.33;0.90;;;19.90;99.90;;;;;;5093136;28;20317;-66
2021/05/24 09:41:06;;;;;;;1.23;0.93;;;20.20;99.90;;;;;;5093316;28;20251;-66
2021/05/24 09:43:34;;;;;;;1.40;1.00;;;20.60;99.90;;;;;;5093168;28;20175;-66
2021/05/24 09:46:07;;;;;;;1.90;1.00;;;20.40;99.90;;;;;;5093248;28;20651;-66
2021/05/24 09:48:33;;;;;;;1.00;0.83;;;20.30;99.90;;;;;;5093047;28;20189;-66
2021/05/24 09:50:58;;;;;;;3.93;1.10;;;20.40;99.90;;;;;;5092643;28;20198;-66
2021/05/24 09:53:24;;;;;;;1.73;1.00;;;20.50;99.90;;;;;;5093046;28;20202;-66
2021/05/24 09:55:49;;;;;;;2.27;1.00;;;20.50;99.90;;;;;;5093111;28;20181;-66
2021/05/24 09:58:15;;;;;;;2.00;1.00;;;20.10;99.90;;;;;;5092696;28;20203;-66
2021/05/24 10:00:45;;;;;;;1.30;0.93;;;19.50;99.90;;;;;;5074072;28;20164;-67
2021/05/24 10:03:12;;;;;;;0.93;0.70;;;19.10;99.90;;;;;;5092816;28;20180;-67
2021/05/24 10:05:38;;;;;;;2.07;1.10;;;19.30;99.90;;;;;;5092595;28;20171;-66
2021/05/24 10:08:05;;;;;;;2.63;1.00;;;20.10;99.90;;;;;;5092565;28;20198;-66
2021/05/24 10:10:30;;;;;;;1.30;0.80;;;20.40;99.90;;;;;;5092484;28;20546;-67
2021/05/24 10:12:58;;;;;;;2.73;1.00;;;20.00;99.90;;;;;;5074274;28;20208;-66
2021/05/24 10:15:24;;;;;;;2.87;0.93;;;20.50;99.90;;;;;;5092589;28;20280;-66
2021/05/24 10:17:57;;;;;;;1.87;1.10;;;20.30;99.90;;;;;;5074453;28;20252;-66
2021/05/24 10:20:23;;;;;;;1.63;1.10;;;20.00;99.90;;;;;;5092664;28;20174;-67
2021/05/24 10:22:49;;;;;;;1.60;0.90;;;20.40;99.90;;;;;;5091941;28;20171;-67
2021/05/24 10:25:15;;;;;;;1.53;1.00;;;21.10;99.90;;;;;;5092385;28;20170;-66
2021/05/24 10:27:41;;;;;;;1.27;0.90;;;20.80;99.90;;;;;;5092526;28;20242;-66
2021/05/24 10:30:07;;;;;;;2.77;1.10;;;20.30;99.90;;;;;;5092527;28;20661;-68
2021/05/24 10:32:34;;;;;;;2.13;1.40;;;20.20;99.90;;;;;;5091843;28;20178;-66
2021/05/24 10:35:00;;;;;;;0.90;0.90;;;19.90;99.90;;;;;;5092113;28;20211;-67
2021/05/24 10:37:27;;;;;;;2.90;1.00;;;19.70;99.90;;;;;;5092109;28;20193;-66
2021/05/24 10:39:54;;;;;;;1.47;0.87;;;20.10;99.90;;;;;;5091890;28;20202;-66
2021/05/24 10:42:42;;;;;;;1.40;0.90;;;20.50;99.90;;;;;;5091817;28;20189;-66
2021/05/24 10:45:20;;;;;;;2.17;0.90;;;20.60;99.90;;;;;;5092193;28;20272;-67
2021/05/24 10:47:59;;;;;;;2.17;0.83;;;20.00;99.90;;;;;;5091996;28;20558;-67
2021/05/24 10:50:28;;;;;;;1.90;0.90;;;19.80;99.90;;;;;;5091685;28;20181;-66
2021/05/24 10:53:04;;;;;;;1.17;0.70;;;20.00;99.90;;;;;;5091848;28;20287;-66
2021/05/24 10:55:31;;;;;;;2.50;0.90;;;20.10;99.90;;;;;;5092340;28;20169;-66
2021/05/24 10:58:02;;;;;;;1.10;0.90;;;20.80;99.90;;;;;;5091794;28;20218;-66
2021/05/24 11:00:28;;;;;;;0.70;0.70;;;21.00;99.90;;;;;;5073591;28;20174;-67
2021/05/24 11:02:56;;;;;;;3.30;1.10;;;20.70;99.90;;;;;;5091811;28;20165;-65
2021/05/24 11:05:30;;;;;;;2.77;0.97;;;20.80;99.90;;;;;;5092008;28;20618;-66
2021/05/24 11:08:01;;;;;;;1.17;0.90;;;20.90;99.90;;;;;;5091797;28;20232;-66
2021/05/24 11:10:29;;;;;;;0.70;0.70;;;20.80;99.90;;;;;;5073177;28;20183;-66
2021/05/24 11:13:05;;;;;;;0.90;0.90;;;21.20;99.90;;;;;;5092218;28;20235;-67
2021/05/24 11:15:32;;;;;;;1.50;0.87;;;21.30;99.90;;;;;;5073618;28;20176;-68
2021/05/24 11:17:58;;;;;;;1.43;1.00;;;21.60;99.70;;;;;;5073258;28;20294;-66
2021/05/24 11:20:51;;;;;;;0.83;0.83;;;21.40;99.40;;;;;;5091892;28;20254;-66
2021/05/24 11:26:10;;;;;;;0.97;0.70;;;20.40;99.90;;;;;;5091711;28;20186;-65
2021/05/24 11:28:38;;;;;;;1.60;0.90;;;20.40;99.90;;;;;;5091555;28;20227;-67
2021/05/24 11:31:15;;;;;;;0.67;0.67;;;20.80;99.90;;;;;;5091564;28;20180;-68
2021/05/24 11:33:47;;;;;;;2.23;0.90;;;21.10;99.90;;;;;;5072971;28;20197;-67
2021/05/24 11:36:32;;;;;;;3.03;0.90;;;21.00;99.90;;;;;;5091389;28;20168;-67
2021/05/24 11:39:12;;;;;;;1.73;0.80;;;21.40;99.20;;;;;;5091032;28;20198;-67
2021/05/24 11:42:07;;;;;;;0.73;0.73;;;22.20;98.40;;;;;;5090969;28;20170;-67
2021/05/24 11:44:45;;;;;;;2.03;0.90;;;21.80;97.10;;;;;;5090850;28;20200;-67
2021/05/24 11:47:16;;;;;;;0.90;0.80;;;22.20;97.30;;;;;;5091743;28;20176;-67
2021/05/24 11:49:47;;;;;;;2.57;0.90;;;22.20;97.20;;;;;;5092649;28;20747;-66
2021/05/24 11:52:19;;;;;;;0.80;0.60;;;22.20;96.70;;;;;;5091335;28;20179;-66
2021/05/24 11:54:49;;;;;;;0.90;0.70;;;22.20;96.90;;;;;;5091191;28;20203;-66
2021/05/24 11:57:17;;;;;;;1.97;0.83;;;21.90;97.00;;;;;;5092004;28;20165;-66
2021/05/24 11:59:42;;;;;;;1.80;0.60;;;21.60;97.70;;;;;;5091715;28;20197;-66
2021/05/24 12:02:08;;;;;;;1.37;0.90;;;21.10;97.50;;;;;;5091409;28;20171;-68
2021/05/24 12:04:42;;;;;;;1.53;0.80;;;20.90;97.60;;;;;;5091234;28;20181;-66
2021/05/24 12:07:14;;;;;;;2.00;0.80;;;21.00;98.20;;;;;;5090904;28;20181;-66
2021/05/24 12:09:46;;;;;;;1.90;0.70;;;21.10;98.40;;;;;;5090656;28;20199;-66
2021/05/24 12:12:14;;;;;;;1.27;0.90;;;21.20;97.90;;;;;;5091291;28;20247;-66
2021/05/24 12:14:48;;;;;;;1.40;0.73;;;20.70;98.00;;;;;;5091131;28;20204;-66
2021/05/24 12:17:16;;;;;;;1.10;0.70;;;20.60;98.40;;;;;;5091152;28;20206;-66
2021/05/24 12:19:42;;;;;;;3.50;0.90;;;20.40;98.90;;;;;;5092042;28;20243;-66
2021/05/24 12:22:11;;;;;;;1.70;0.70;;;20.80;98.80;;;;;;5091889;28;20259;-67
2021/05/24 12:24:42;;;;;;;2.77;1.87;;;21.40;98.00;;;;;;5091035;28;20233;-66
2021/05/24 12:27:10;;;;;;;0.97;0.70;;;21.90;97.00;;;;;;5091104;28;20301;-67
2021/05/24 12:29:55;;;;;;;3.00;1.20;;;21.10;98.10;;;;;;5090915;28;20196;-67
2021/05/24 12:32:38;;;;;;;1.47;0.80;;;20.80;99.10;;;;;;5090432;28;20645;-67
2021/05/24 12:35:25;;;;;;;0.70;0.70;;;20.70;98.00;;;;;;5091473;28;20236;-67
2021/05/24 12:37:55;;;;;;;1.63;1.23;;;20.60;99.30;;;;;;5093872;28;20192;-66
2021/05/24 12:40:26;;;;;;;1.37;1.03;;;20.40;98.70;;;;;;5094412;28;20225;-66
2021/05/24 12:42:51;;;;;;;3.30;0.90;;;20.80;98.80;;;;;;5095228;28;20182;-67
2021/05/24 12:45:24;;;;;;;1.13;1.00;;;20.80;98.50;;;;;;5094707;28;20163;-67
2021/05/24 12:47:52;;;;;;;0.67;0.67;;;20.70;99.20;;;;;;5095414;28;20662;-66
2021/05/24 12:50:18;;;;;;;2.87;0.90;;;21.10;99.40;;;;;;5095421;28;20173;-67
2021/05/24 12:52:44;;;;;;;0.73;0.60;;;21.20;98.70;;;;;;5095283;28;20171;-69
2021/05/24 12:55:15;;;;;;;1.67;0.70;;;21.30;99.10;;;;;;5096203;28;20173;-66
2021/05/24 12:57:46;;;;;;;1.73;0.80;;;20.90;98.20;;;;;;5095658;28;20193;-66
2021/05/24 13:00:13;;;;;;;2.00;0.70;;;20.40;97.50;;;;;;5079479;22;20231;-70
2021/05/24 13:02:39;;;;;;;1.27;0.83;;;20.50;98.00;;;;;;5035312;28;20201;-69
2021/05/24 13:05:11;;;;;;;1.10;0.80;;;20.50;98.20;;;;;;5054056;28;20177;-69